createdAt,value
2017-10-05T00:07:05.740Z,78.60
2017-10-05T06:16:48.836Z,82.50
2017-10-05T06:26:36.627Z,82.00
2017-10-05T06:29:04.731Z,81.80
2017-10-05T06:31:32.092Z,81.10
2017-10-05T06:33:59.072Z,81.10
2017-10-05T06:36:26.252Z,81.10
2017-10-05T06:38:52.563Z,80.40
2017-10-05T06:41:20.669Z,80.00
2017-10-05T06:43:51.184Z,79.90
2017-10-05T06:46:18.275Z,79.30
2017-10-05T06:48:48.228Z,79.30
2017-10-05T06:51:15.336Z,78.70
2017-10-05T06:53:41.870Z,79.00
2017-10-05T06:56:08.869Z,77.40
2017-10-05T06:58:36.898Z,77.40
2017-10-05T07:01:03.226Z,77.10
2017-10-05T07:03:30.160Z,76.40
2017-10-05T07:05:57.793Z,75.50
2017-10-05T07:08:24.390Z,75.70
2017-10-05T07:10:52.021Z,75.20
2017-10-05T07:13:19.428Z,75.40
2017-10-05T07:18:19.069Z,74.70
2017-10-05T07:20:47.021Z,74.20
2017-10-05T07:23:14.825Z,73.80
2017-10-05T07:25:42.666Z,73.70
2017-10-05T07:28:09.385Z,73.80
2017-10-05T07:30:36.455Z,74.50
2017-10-05T07:33:03.909Z,73.50
2017-10-05T07:35:30.273Z,72.90
2017-10-05T07:37:56.925Z,73.20
2017-10-05T07:40:27.764Z,72.40
2017-10-05T07:42:57.596Z,72.50
2017-10-05T07:45:24.241Z,70.70
2017-10-05T07:47:50.907Z,70.30
2017-10-05T07:50:17.259Z,70.30
2017-10-05T07:52:46.228Z,70.00
2017-10-05T07:55:15.795Z,69.40
2017-10-05T07:57:43.741Z,69.40
2017-10-05T08:00:10.327Z,67.40
2017-10-05T08:02:41.302Z,68.40
2017-10-05T08:05:07.712Z,67.50
2017-10-05T08:07:35.585Z,66.50
2017-10-05T08:10:04.226Z,66.80
2017-10-05T08:15:07.444Z,66.40
2017-10-05T08:17:33.789Z,66.60
2017-10-05T08:20:02.988Z,67.50
2017-10-05T08:25:01.995Z,67.60
2017-10-05T08:27:29.672Z,68.50
2017-10-05T08:29:57.162Z,68.10
2017-10-05T08:32:25.068Z,67.60
2017-10-05T08:34:53.453Z,67.50
2017-10-05T08:37:21.314Z,67.00
2017-10-05T08:39:48.686Z,67.50
2017-10-05T08:42:15.277Z,66.40
2017-10-05T08:44:44.040Z,66.00
2017-10-05T08:52:20.346Z,64.20
2017-10-05T08:54:50.317Z,65.40
2017-10-05T08:57:18.062Z,65.60
2017-10-05T08:59:45.151Z,63.90
2017-10-05T09:04:42.306Z,63.70
2017-10-05T09:07:09.339Z,62.40
2017-10-05T09:09:38.063Z,62.00
2017-10-05T09:12:05.935Z,61.70
2017-10-05T09:14:34.309Z,61.30
2017-10-05T09:17:00.652Z,61.30
2017-10-05T09:19:28.836Z,61.60
2017-10-05T09:21:58.100Z,60.80
2017-10-05T09:26:56.656Z,59.40
2017-10-05T09:31:55.894Z,59.40
2017-10-05T09:34:24.316Z,59.80
2017-10-05T09:36:50.711Z,58.50
2017-10-05T09:39:19.104Z,58.80
2017-10-05T09:41:46.444Z,59.10
2017-10-05T09:44:15.438Z,58.10
2017-10-05T09:49:18.808Z,57.70
2017-10-05T10:01:59.561Z,56.70
2017-10-05T10:04:28.758Z,56.10
2017-10-05T10:06:59.369Z,55.90
2017-10-05T10:09:33.189Z,55.90
2017-10-05T10:12:00.313Z,53.70
2017-10-05T10:14:31.092Z,50.50
2017-10-05T10:32:36.499Z,31.60
2017-10-05T10:37:51.307Z,29.20
2017-10-05T10:51:07.280Z,27.60
2017-10-05T10:53:37.330Z,27.00
2017-10-05T10:56:04.250Z,26.90
2017-10-05T10:58:35.971Z,26.90
2017-10-05T11:01:05.615Z,24.80
2017-10-05T11:03:34.585Z,25.80
2017-10-05T11:06:04.649Z,25.50
2017-10-05T11:08:30.932Z,27.90
2017-10-05T11:10:59.101Z,29.20
2017-10-05T11:13:28.875Z,26.10
2017-10-05T11:15:56.564Z,26.10
2017-10-05T11:18:23.831Z,26.30
2017-10-05T11:20:55.187Z,25.80
2017-10-05T11:23:24.077Z,25.90
2017-10-05T11:25:53.028Z,24.10
2017-10-05T11:28:19.881Z,24.10
2017-10-05T11:30:47.043Z,24.80
2017-10-05T11:33:14.387Z,25.80
2017-10-05T11:35:42.499Z,26.50
2017-10-05T11:38:12.872Z,26.90
2017-10-05T11:40:43.915Z,27.90
2017-10-05T11:43:12.620Z,28.70
2017-10-05T11:45:43.481Z,28.00
2017-10-05T11:48:12.542Z,26.50
2017-10-05T11:50:41.495Z,25.00
2017-10-05T11:53:11.888Z,23.20
2017-10-05T11:55:47.890Z,24.40
2017-10-05T11:58:14.699Z,24.50
2017-10-05T12:00:41.164Z,24.40
2017-10-05T12:03:09.212Z,23.90
2017-10-05T12:05:39.032Z,23.40
2017-10-05T12:08:06.336Z,24.10
2017-10-05T12:10:33.977Z,25.40
2017-10-05T12:13:01.949Z,27.30
2017-10-05T12:15:32.165Z,27.30
2017-10-05T12:18:01.658Z,32.20
2017-10-05T12:20:29.368Z,32.20
2017-10-05T12:22:57.444Z,31.90
2017-10-05T12:25:26.448Z,31.10
2017-10-05T12:39:29.231Z,25.20
2017-10-05T12:41:55.542Z,23.10
2017-10-05T12:44:21.822Z,22.70
2017-10-05T12:46:48.620Z,23.20
2017-10-05T12:49:14.930Z,23.20
2017-10-05T12:51:41.191Z,23.30
2017-10-05T12:54:07.470Z,23.70
2017-10-05T12:56:33.752Z,23.30
2017-10-05T12:59:00.055Z,24.80
2017-10-05T13:01:26.323Z,25.80
2017-10-05T13:03:52.987Z,29.40
2017-10-05T13:06:19.284Z,29.50
2017-10-05T13:08:45.928Z,30.90
2017-10-05T13:11:12.632Z,31.00
2017-10-05T13:13:38.904Z,31.00
2017-10-05T13:16:05.202Z,32.30
2017-10-05T13:18:31.456Z,32.70
2017-10-05T13:20:58.109Z,30.40
2017-10-05T13:23:24.748Z,31.90
2017-10-05T13:25:51.072Z,31.90
2017-10-05T13:28:17.353Z,33.50
2017-10-05T13:30:43.639Z,34.10
2017-10-05T13:33:10.171Z,35.20
2017-10-05T13:35:36.476Z,35.90
2017-10-05T13:38:02.743Z,34.90
2017-10-05T13:40:29.124Z,34.20
2017-10-05T13:42:56.739Z,34.30
2017-10-05T13:45:23.025Z,36.20
2017-10-05T13:47:49.302Z,36.90
2017-10-05T13:50:15.565Z,37.70
2017-10-05T13:52:41.823Z,37.30
2017-10-05T13:55:08.125Z,38.40
2017-10-05T13:57:35.372Z,38.20
2017-10-05T14:00:01.652Z,38.50
2017-10-05T14:02:27.974Z,38.80
2017-10-05T14:04:54.240Z,38.90
2017-10-05T14:07:20.539Z,39.60
2017-10-05T14:09:46.855Z,39.40
2017-10-05T14:12:13.542Z,39.90
2017-10-05T14:14:39.818Z,39.90
2017-10-05T14:17:06.527Z,40.40
2017-10-05T14:19:32.824Z,40.30
2017-10-05T14:21:59.113Z,40.10
2017-10-05T14:24:25.768Z,41.60
2017-10-05T14:26:52.452Z,41.50
2017-10-05T14:29:18.803Z,41.40
2017-10-05T14:31:45.093Z,46.30
2017-10-05T14:34:11.379Z,47.10
2017-10-05T14:36:37.686Z,45.60
2017-10-05T14:39:04.032Z,44.50
2017-10-05T14:41:30.688Z,44.70
2017-10-05T14:43:57.315Z,41.70
2017-10-05T14:46:23.893Z,41.70
2017-10-05T14:48:50.164Z,41.50
2017-10-05T14:51:16.433Z,41.50
2017-10-05T14:53:42.715Z,41.80
2017-10-05T14:56:08.992Z,42.50
2017-10-05T14:58:35.271Z,42.40
2017-10-05T15:01:01.550Z,41.70
2017-10-05T15:03:27.872Z,41.20
2017-10-05T15:05:54.523Z,39.60
2017-10-05T15:08:20.816Z,39.60
2017-10-05T15:10:47.120Z,40.90
2017-10-05T15:13:13.413Z,42.20
2017-10-05T15:15:39.715Z,41.10
2017-10-05T15:18:06.031Z,42.00
2017-10-05T15:20:32.375Z,44.10
2017-10-05T15:22:59.037Z,41.90
2017-10-05T15:25:26.325Z,42.00
2017-10-05T15:27:53.583Z,44.50
2017-10-05T15:30:19.884Z,41.70
2017-10-05T15:32:46.238Z,42.70
2017-10-05T15:35:12.521Z,42.90
2017-10-05T15:37:39.457Z,43.80
2017-10-05T15:40:05.782Z,43.10
2017-10-05T15:42:32.424Z,42.80
2017-10-05T15:44:59.116Z,44.60
2017-10-05T15:47:25.416Z,44.60
2017-10-05T15:49:52.631Z,44.70
2017-10-05T15:52:18.908Z,45.80
2017-10-05T15:54:45.276Z,45.90
2017-10-05T15:57:11.640Z,49.60
2017-10-05T15:59:38.564Z,51.80
2017-10-05T16:02:04.903Z,51.90
2017-10-05T16:04:31.572Z,51.50
2017-10-05T16:06:57.912Z,51.50
2017-10-05T16:09:24.188Z,52.30
2017-10-05T16:11:51.407Z,51.80
2017-10-05T16:14:17.693Z,52.10
2017-10-05T16:16:44.380Z,53.40
2017-10-05T16:19:10.685Z,53.40
2017-10-05T16:21:36.957Z,54.30
2017-10-05T16:24:03.315Z,54.90
2017-10-05T16:26:29.976Z,57.20
2017-10-05T16:28:56.265Z,57.20
2017-10-05T16:31:22.602Z,58.70
2017-10-05T16:33:48.888Z,61.10
2017-10-05T16:36:15.169Z,63.40
2017-10-05T16:38:41.810Z,69.80
2017-10-05T16:41:08.459Z,72.10
2017-10-05T16:43:35.115Z,73.00
2017-10-05T16:46:01.411Z,73.00
2017-10-05T16:48:27.868Z,74.50
2017-10-05T16:50:54.250Z,77.90
2017-10-05T16:53:20.555Z,78.70
2017-10-05T16:55:46.851Z,81.30
2017-10-05T16:58:13.181Z,82.10
2017-10-05T17:00:39.520Z,82.70
2017-10-05T17:03:05.851Z,83.20
2017-10-05T17:05:32.145Z,84.20
2017-10-05T17:07:58.461Z,84.50
2017-10-05T17:10:24.795Z,84.30
2017-10-05T17:12:51.199Z,84.50
2017-10-05T17:15:17.692Z,84.80
2017-10-05T17:17:43.989Z,84.20
2017-10-05T17:20:10.683Z,84.50
2017-10-05T17:22:36.982Z,83.90
2017-10-05T17:25:03.268Z,83.70
2017-10-05T17:27:29.616Z,83.60
2017-10-05T17:29:55.917Z,84.30
2017-10-05T17:32:22.300Z,84.40
2017-10-05T17:34:48.635Z,83.50
2017-10-05T17:37:15.275Z,84.70
2017-10-05T17:39:41.968Z,84.60
2017-10-05T17:42:08.352Z,84.60
2017-10-05T17:44:35.029Z,85.60
2017-10-05T17:47:01.340Z,85.60
2017-10-05T17:49:27.622Z,85.20
2017-10-05T17:51:54.022Z,84.40
2017-10-05T17:54:20.321Z,84.20
2017-10-05T17:56:46.730Z,83.80
2017-10-05T17:59:13.200Z,84.80
2017-10-05T18:01:39.604Z,84.70
2017-10-05T18:04:06.395Z,84.40
2017-10-05T18:06:32.687Z,84.40
2017-10-05T18:08:59.026Z,83.50
2017-10-05T18:11:25.345Z,84.70
2017-10-05T18:13:51.723Z,84.10
2017-10-05T18:16:18.005Z,83.40
2017-10-05T18:18:44.311Z,84.30
2017-10-05T18:21:10.887Z,84.00
2017-10-05T18:23:37.247Z,85.10
2017-10-05T18:26:03.548Z,84.30
2017-10-05T18:28:30.469Z,85.30
2017-10-05T18:30:56.848Z,85.00
2017-10-05T18:33:23.192Z,85.30
2017-10-05T18:35:50.451Z,85.50
2017-10-05T18:38:16.930Z,86.30
2017-10-05T18:40:43.623Z,85.50
2017-10-05T18:43:10.077Z,85.50
2017-10-05T18:45:36.878Z,83.50
2017-10-05T18:48:03.751Z,83.50
2017-10-05T18:50:30.103Z,82.70
2017-10-05T18:52:57.015Z,83.30
2017-10-05T18:55:23.621Z,83.30
2017-10-05T18:57:50.100Z,80.60
2017-10-05T19:00:16.573Z,83.00
2017-10-05T19:02:42.955Z,83.00
2017-10-05T19:05:09.396Z,82.20
2017-10-05T19:07:35.697Z,82.60
2017-10-05T19:10:02.143Z,83.80
2017-10-05T19:12:29.592Z,84.40
2017-10-05T19:14:55.996Z,82.80
2017-10-05T19:17:22.397Z,82.80
2017-10-05T19:19:49.173Z,82.70
2017-10-05T19:22:15.585Z,82.70
2017-10-05T19:24:41.900Z,83.20
2017-10-05T19:27:09.847Z,83.30
2017-10-05T19:29:36.631Z,85.00
2017-10-05T19:32:03.455Z,82.90
2017-10-05T19:34:30.141Z,84.20
2017-10-05T19:36:56.751Z,83.90
2017-10-05T19:39:23.117Z,83.20
2017-10-05T19:41:50.390Z,84.20
2017-10-05T19:44:17.106Z,84.10
2017-10-05T19:46:44.725Z,82.70
2017-10-05T19:49:11.183Z,81.50
2017-10-05T19:51:37.732Z,82.90
2017-10-05T19:54:04.205Z,82.00
2017-10-05T19:56:30.564Z,82.20
2017-10-05T19:58:58.097Z,82.60
2017-10-05T20:01:24.585Z,81.90
2017-10-05T20:03:51.313Z,83.80
2017-10-05T20:06:18.077Z,83.80
2017-10-05T20:08:44.879Z,83.50
2017-10-05T20:11:11.221Z,84.40
2017-10-05T20:27:16.247Z,83.60
2017-10-05T20:29:48.565Z,83.60
2017-10-05T20:32:33.846Z,83.60
2017-10-05T20:35:00.193Z,84.00
2017-10-05T20:37:27.871Z,84.40
2017-10-05T20:39:54.218Z,84.40
2017-10-05T20:42:20.543Z,84.20
2017-10-05T20:44:46.866Z,83.20
2017-10-05T20:47:13.178Z,83.00
2017-10-05T20:49:39.502Z,83.40
2017-10-05T20:52:05.787Z,83.00
2017-10-05T20:54:32.983Z,82.10
2017-10-05T20:57:00.174Z,82.40
2017-10-05T20:59:26.492Z,81.90
2017-10-05T21:01:52.735Z,82.20
2017-10-05T21:04:19.463Z,83.10
2017-10-05T21:06:45.748Z,82.60
2017-10-05T21:09:12.048Z,83.10
2017-10-05T21:11:38.343Z,82.20
2017-10-05T21:14:04.618Z,82.40
2017-10-05T21:16:30.926Z,82.30
2017-10-05T21:18:57.649Z,82.30
2017-10-05T21:21:23.936Z,81.30
2017-10-05T21:23:50.214Z,81.60
2017-10-05T21:26:16.953Z,81.10
2017-10-05T21:28:43.213Z,80.40
2017-10-05T21:31:09.465Z,78.70
2017-10-05T21:33:35.771Z,79.70
2017-10-05T21:36:02.086Z,79.60
2017-10-05T21:38:28.361Z,80.50
2017-10-05T21:40:54.652Z,80.20
2017-10-05T21:43:20.944Z,79.60
2017-10-05T21:45:47.195Z,79.40
2017-10-05T21:48:13.536Z,80.10
2017-10-05T21:50:39.784Z,78.90
2017-10-05T21:53:06.036Z,80.80
2017-10-05T21:55:32.717Z,79.50
2017-10-05T21:57:58.975Z,79.50
2017-10-05T22:00:27.404Z,79.30
2017-10-05T22:02:54.028Z,79.60
2017-10-05T22:05:20.696Z,80.00
2017-10-05T22:07:46.935Z,80.00
2017-10-05T22:10:13.239Z,80.90
2017-10-05T22:12:39.515Z,80.60
2017-10-05T22:15:05.799Z,81.50
2017-10-05T22:17:32.629Z,82.60
2017-10-05T22:20:00.766Z,83.70
2017-10-05T22:22:27.053Z,83.70
2017-10-05T22:24:53.352Z,83.20
2017-10-05T22:27:20.003Z,83.70
2017-10-05T22:29:46.643Z,83.80
2017-10-05T22:32:13.975Z,83.80
2017-10-05T22:34:40.263Z,83.80
2017-10-05T22:37:07.332Z,82.60
2017-10-05T22:39:34.610Z,83.70
2017-10-05T22:42:01.259Z,84.10
2017-10-05T22:44:28.736Z,83.90
2017-10-05T22:46:54.983Z,83.90
2017-10-05T22:49:21.847Z,84.60
2017-10-05T22:51:48.121Z,84.60
2017-10-05T22:54:14.675Z,84.20
2017-10-05T22:56:40.928Z,83.20
2017-10-05T22:59:07.963Z,83.90
2017-10-05T23:01:34.283Z,84.20
2017-10-05T23:04:00.559Z,84.60
2017-10-05T23:06:26.828Z,83.90
2017-10-05T23:08:53.088Z,82.60
2017-10-05T23:11:19.376Z,82.10
2017-10-05T23:13:46.027Z,81.70
2017-10-05T23:16:13.026Z,81.70
2017-10-05T23:18:39.331Z,81.40
2017-10-05T23:21:05.596Z,83.00
2017-10-05T23:23:31.864Z,83.00
2017-10-05T23:25:58.096Z,83.20
2017-10-05T23:28:24.948Z,83.20
2017-10-05T23:30:51.198Z,82.40
2017-10-05T23:33:17.794Z,82.30
2017-10-05T23:35:44.039Z,82.20
2017-10-05T23:38:10.286Z,81.40
2017-10-05T23:40:36.555Z,81.70
2017-10-05T23:43:02.811Z,81.80
2017-10-05T23:45:29.080Z,81.30
2017-10-05T23:47:55.324Z,80.90
2017-10-05T23:50:21.579Z,81.10
2017-10-05T23:52:48.225Z,82.20
2017-10-05T23:55:14.839Z,82.40
2017-10-05T23:57:41.530Z,82.20
